createdAt,value
2019-04-23T00:02:19.754Z,5.20
2019-04-23T00:04:48.006Z,5.83
2019-04-23T00:07:35.558Z,5.30
2019-04-23T00:10:03.445Z,5.60
2019-04-23T00:12:40.922Z,5.20
2019-04-23T00:17:40.318Z,5.73
2019-04-23T00:20:04.566Z,5.47
2019-04-23T00:22:55.091Z,5.83
2019-04-23T00:28:02.564Z,5.63
2019-04-23T00:30:36.576Z,6.07
2019-04-23T00:32:55.482Z,6.03
2019-04-23T00:35:32.681Z,6.10
2019-04-23T00:38:07.687Z,5.23
2019-04-23T00:40:31.772Z,6.17
2019-04-23T00:43:03.508Z,6.17
2019-04-23T00:45:39.908Z,5.40
2019-04-23T00:48:02.014Z,5.73
2019-04-23T00:50:46.563Z,5.90
2019-04-23T00:53:12.583Z,5.63
2019-04-23T00:55:43.757Z,6.00
2019-04-23T00:58:21.479Z,6.63
2019-04-23T01:05:46.980Z,6.50
2019-04-23T01:08:21.752Z,6.30
2019-04-23T01:10:54.025Z,5.83
2019-04-23T01:15:57.711Z,6.40
2019-04-23T01:20:54.645Z,6.03
2019-04-23T01:23:37.797Z,6.53
2019-04-23T01:26:23.938Z,6.03
2019-04-23T01:29:05.294Z,6.20
2019-04-23T01:31:31.137Z,6.13
2019-04-23T01:34:07.976Z,7.13
2019-04-23T01:36:34.702Z,6.37
2019-04-23T01:39:06.345Z,6.90
2019-04-23T01:41:38.001Z,6.80
2019-04-23T01:44:11.487Z,6.27
2019-04-23T01:46:46.267Z,7.17
2019-04-23T01:49:07.440Z,7.10
2019-04-23T01:51:55.701Z,6.83
2019-04-23T01:54:09.442Z,6.87
2019-04-23T01:56:54.995Z,7.07
2019-04-23T01:59:20.087Z,7.30
2019-04-23T02:01:47.977Z,7.77
2019-04-23T02:04:16.947Z,7.20
2019-04-23T02:06:45.039Z,7.70
2019-04-23T02:09:18.631Z,6.93
2019-04-23T02:12:07.591Z,6.97
2019-04-23T02:14:22.861Z,7.30
2019-04-23T02:16:50.284Z,6.50
2019-04-23T02:19:23.725Z,7.40
2019-04-23T02:22:03.980Z,7.23
2019-04-23T02:24:42.764Z,7.67
2019-04-23T02:27:16.473Z,6.83
2019-04-23T02:32:09.240Z,7.33
2019-04-23T02:34:57.791Z,8.03
2019-04-23T02:37:24.416Z,7.53
2019-04-23T02:42:40.126Z,8.37
2019-04-23T02:44:56.342Z,7.50
2019-04-23T02:47:23.125Z,8.30
2019-04-23T02:50:11.151Z,8.27
2019-04-23T02:52:21.312Z,8.63
2019-04-23T02:57:28.143Z,8.13
2019-04-23T03:00:19.283Z,8.57
2019-04-23T03:05:00.903Z,8.77
2019-04-23T03:07:40.899Z,9.13
2019-04-23T03:10:10.130Z,8.70
2019-04-23T03:13:13.780Z,8.90
2019-04-23T03:15:21.336Z,9.10
2019-04-23T03:17:49.276Z,8.97
2019-04-23T03:20:48.691Z,9.07
2019-04-23T03:23:27.429Z,9.37
2019-04-23T03:25:39.427Z,9.20
2019-04-23T03:28:25.254Z,9.63
2019-04-23T03:31:56.215Z,9.17
2019-04-23T03:34:21.025Z,8.90
2019-04-23T03:38:45.277Z,8.93
2019-04-23T03:41:15.818Z,9.00
2019-04-23T03:46:12.141Z,9.30
2019-04-23T03:48:32.310Z,9.13
2019-04-23T03:50:53.736Z,10.07
2019-04-23T03:56:05.466Z,9.10
2019-04-23T03:58:38.710Z,9.40
2019-04-23T04:01:07.168Z,10.23
2019-04-23T04:04:04.094Z,9.33
2019-04-23T04:06:13.855Z,9.73
2019-04-23T04:08:41.589Z,9.13
2019-04-23T04:11:12.398Z,9.87
2019-04-23T04:13:42.833Z,10.97
2019-04-23T04:18:45.827Z,8.57
2019-04-23T04:21:16.060Z,10.13
2019-04-23T04:23:58.296Z,10.03
2019-04-23T04:26:14.300Z,9.93
2019-04-23T04:28:58.825Z,10.30
2019-04-23T04:31:13.701Z,10.73
2019-04-23T04:34:08.541Z,10.57
2019-04-23T04:36:20.933Z,10.30
2019-04-23T04:41:27.683Z,11.23
2019-04-23T04:46:35.420Z,10.47
2019-04-23T04:48:59.098Z,10.47
2019-04-23T04:51:37.647Z,11.33
2019-04-23T04:56:30.467Z,9.93
2019-04-23T05:01:53.901Z,10.47
2019-04-23T05:03:57.939Z,10.47
2019-04-23T05:06:40.328Z,10.80
2019-04-23T05:09:11.991Z,10.07
2019-04-23T05:11:35.115Z,10.47
2019-04-23T05:14:06.631Z,10.27
2019-04-23T05:16:33.697Z,10.80
2019-04-23T05:19:23.479Z,10.50
2019-04-23T05:24:22.746Z,10.60
2019-04-23T05:26:29.347Z,9.77
2019-04-23T05:31:42.153Z,10.23
2019-04-23T05:34:19.583Z,9.77
2019-04-23T05:36:45.429Z,10.30
2019-04-23T05:39:23.433Z,10.70
2019-04-23T05:41:45.594Z,9.93
2019-04-23T05:44:21.585Z,9.87
2019-04-23T05:46:54.027Z,9.83
2019-04-23T05:49:39.498Z,10.27
2019-04-23T05:51:57.418Z,10.90
2019-04-23T05:54:29.973Z,10.57
2019-04-23T05:56:54.204Z,10.23
2019-04-23T05:59:30.286Z,11.43
2019-04-23T06:01:57.422Z,9.37
2019-04-23T06:04:32.767Z,10.43
2019-04-23T06:09:39.381Z,9.87
2019-04-23T06:12:04.735Z,9.80
2019-04-23T06:14:57.418Z,10.40
2019-04-23T06:17:19.032Z,10.50
2019-04-23T06:19:48.414Z,10.10
2019-04-23T06:22:27.270Z,10.63
2019-04-23T06:24:55.144Z,10.50
2019-04-23T06:27:18.167Z,10.20
2019-04-23T06:29:45.066Z,9.60
2019-04-23T06:32:22.821Z,10.13
2019-04-23T06:34:53.153Z,10.90
2019-04-23T06:37:25.809Z,10.13
2019-04-23T06:39:55.386Z,9.87
2019-04-23T06:42:23.379Z,10.20
2019-04-23T06:47:26.199Z,10.00
2019-04-23T06:49:55.928Z,10.77
2019-04-23T06:52:30.077Z,10.37
2019-04-23T06:55:01.522Z,10.80
2019-04-23T06:57:27.091Z,9.20
2019-04-23T06:59:59.212Z,10.50
2019-04-23T07:02:34.326Z,9.97
2019-04-23T07:07:50.042Z,10.50
2019-04-23T07:10:07.243Z,10.70
2019-04-23T07:12:38.830Z,9.57
2019-04-23T07:15:25.027Z,9.87
2019-04-23T07:17:34.887Z,10.83
2019-04-23T07:20:15.195Z,9.67
2019-04-23T07:22:39.356Z,10.93
2019-04-23T07:25:15.673Z,9.93
2019-04-23T07:27:43.205Z,10.97
2019-04-23T07:30:14.763Z,9.63
2019-04-23T07:35:11.583Z,10.50
2019-04-23T07:37:58.513Z,10.10
2019-04-23T07:42:51.297Z,9.70
2019-04-23T07:45:33.031Z,10.17
2019-04-23T07:55:51.371Z,9.90
2019-04-23T08:00:49.012Z,9.83
2019-04-23T08:05:42.618Z,8.77
2019-04-23T08:08:19.650Z,9.20
2019-04-23T08:11:30.589Z,9.30
2019-04-23T08:16:18.264Z,10.17
2019-04-23T08:18:46.814Z,9.63
2019-04-23T08:23:49.007Z,8.63
2019-04-23T08:26:33.627Z,9.17
2019-04-23T08:29:03.635Z,8.30
2019-04-23T08:31:38.589Z,8.47
2019-04-23T08:34:20.441Z,8.50
2019-04-23T08:36:44.276Z,8.73
2019-04-23T08:39:13.759Z,9.13
2019-04-23T08:41:46.034Z,8.40
2019-04-23T08:44:21.472Z,8.70
2019-04-23T08:49:29.370Z,8.10
2019-04-23T08:52:00.306Z,7.97
2019-04-23T08:54:37.046Z,6.63
2019-04-23T08:59:33.034Z,8.60
2019-04-23T09:02:15.857Z,8.87
2019-04-23T09:04:36.234Z,8.27
2019-04-23T09:07:04.509Z,7.03
2019-04-23T09:09:36.883Z,7.70
2019-04-23T09:12:03.285Z,7.80
2019-04-23T09:14:32.263Z,9.33
2019-04-23T09:17:06.818Z,8.67
2019-04-23T09:19:51.748Z,6.87
2019-04-23T09:22:14.160Z,7.17
2019-04-23T09:24:44.940Z,8.17
2019-04-23T09:27:16.396Z,8.17
2019-04-23T09:29:45.809Z,7.43
2019-04-23T09:32:26.924Z,7.53
2019-04-23T09:37:54.110Z,7.37
2019-04-23T09:40:41.680Z,7.73
2019-04-23T09:43:08.102Z,7.90
2019-04-23T09:45:46.847Z,8.00
2019-04-23T09:48:11.595Z,8.23
2019-04-23T09:50:42.069Z,7.83
2019-04-23T09:58:11.738Z,7.57
2019-04-23T10:01:00.361Z,7.03
2019-04-23T10:03:10.253Z,6.90
2019-04-23T10:05:33.960Z,7.20
2019-04-23T10:08:05.149Z,7.37
2019-04-23T10:10:26.216Z,7.40
2019-04-23T10:12:55.982Z,7.00
2019-04-23T10:15:32.441Z,6.93
2019-04-23T10:17:56.432Z,6.80
2019-04-23T10:20:26.747Z,6.90
2019-04-23T10:22:56.715Z,6.03
2019-04-23T10:25:27.750Z,6.80
2019-04-23T10:28:01.603Z,7.70
2019-04-23T10:30:28.868Z,6.60
2019-04-23T10:32:58.344Z,5.90
2019-04-23T10:35:38.611Z,6.77
2019-04-23T10:38:04.393Z,6.10
2019-04-23T10:40:34.826Z,6.50
2019-04-23T10:43:02.125Z,6.70
2019-04-23T10:45:48.433Z,5.70
2019-04-23T10:48:49.483Z,5.73
2019-04-23T10:51:28.569Z,6.97
2019-04-23T10:53:52.392Z,6.17
2019-04-23T10:56:36.164Z,6.37
2019-04-23T10:58:58.430Z,5.70
2019-04-23T11:01:28.245Z,5.40
2019-04-23T11:04:33.734Z,5.60
2019-04-23T11:06:44.268Z,6.17
2019-04-23T11:09:23.528Z,5.90
2019-04-23T11:11:48.292Z,5.80
2019-04-23T11:14:18.302Z,5.50
2019-04-23T11:19:15.154Z,6.47
2019-04-23T11:21:42.782Z,6.27
2019-04-23T11:29:19.394Z,5.90
2019-04-23T11:34:44.019Z,5.40
2019-04-23T11:39:24.287Z,6.00
2019-04-23T11:41:59.868Z,6.70
2019-04-23T11:44:28.904Z,6.23
2019-04-23T11:47:04.209Z,5.90
2019-04-23T11:49:51.553Z,6.27
2019-04-23T11:52:05.416Z,4.90
2019-04-23T11:54:30.681Z,5.23
2019-04-23T11:57:30.219Z,6.10
2019-04-23T11:59:43.619Z,6.77
2019-04-23T12:05:00.951Z,5.43
2019-04-23T12:07:33.902Z,6.17
2019-04-23T12:10:16.358Z,4.90
2019-04-23T12:17:47.090Z,6.17
2019-04-23T12:20:23.351Z,6.83
2019-04-23T12:22:57.477Z,6.00
2019-04-23T12:25:36.580Z,6.93
2019-04-23T12:27:39.717Z,6.30
2019-04-23T12:30:30.144Z,7.33
2019-04-23T12:37:53.871Z,8.17
2019-04-23T12:41:13.578Z,8.47
2019-04-23T12:43:04.887Z,6.43
2019-04-23T12:48:02.224Z,5.90
2019-04-23T12:58:09.928Z,6.60
2019-04-23T13:00:37.072Z,6.77
2019-04-23T13:03:08.580Z,5.47
2019-04-23T13:05:32.691Z,6.93
2019-04-23T13:08:33.266Z,8.47
2019-04-23T13:11:02.792Z,6.43
2019-04-23T13:13:23.569Z,8.00
2019-04-23T13:16:02.836Z,7.50
2019-04-23T13:18:17.506Z,5.33
2019-04-23T13:20:46.819Z,5.37
2019-04-23T13:23:22.290Z,7.33
2019-04-23T13:26:00.935Z,6.20
2019-04-23T13:28:38.835Z,5.50
2019-04-23T13:33:52.479Z,7.13
2019-04-23T13:36:17.534Z,7.80
2019-04-23T13:38:41.854Z,9.13
2019-04-23T13:41:23.145Z,5.30
2019-04-23T13:43:42.525Z,5.47
2019-04-23T13:46:31.118Z,6.67
2019-04-23T13:48:42.315Z,6.53
2019-04-23T13:51:35.852Z,6.33
2019-04-23T13:53:53.661Z,4.60
2019-04-23T13:56:25.247Z,6.47
2019-04-23T13:58:59.705Z,5.43
2019-04-23T14:03:54.472Z,5.73
2019-04-23T14:06:37.288Z,8.90
2019-04-23T14:08:59.745Z,5.37
2019-04-23T14:11:32.401Z,4.90
2019-04-23T14:14:05.817Z,5.27
2019-04-23T14:16:39.548Z,7.53
2019-04-23T14:19:02.359Z,7.30
2019-04-23T14:21:51.676Z,12.30
2019-04-23T14:24:18.040Z,6.07
2019-04-23T14:26:38.380Z,6.27
2019-04-23T14:29:14.701Z,5.33
2019-04-23T14:31:45.282Z,5.70
2019-04-23T14:36:52.137Z,5.63
2019-04-23T14:39:24.016Z,5.83
2019-04-23T14:44:27.519Z,6.87
2019-04-23T14:50:09.299Z,7.43
2019-04-23T14:52:21.343Z,8.40
2019-04-23T14:55:31.531Z,5.43
2019-04-23T14:57:24.707Z,7.87
2019-04-23T15:00:00.088Z,9.57
2019-04-23T15:02:31.489Z,5.03
2019-04-23T15:04:54.373Z,4.80
2019-04-23T15:10:06.987Z,6.53
2019-04-23T15:12:30.397Z,5.17
2019-04-23T15:15:08.254Z,5.97
2019-04-23T15:17:30.493Z,5.50
2019-04-23T15:20:06.690Z,6.50
2019-04-23T15:22:35.124Z,7.53
2019-04-23T15:25:21.603Z,8.07
2019-04-23T15:29:58.266Z,5.90
2019-04-23T15:33:04.226Z,5.03
2019-04-23T15:37:58.802Z,6.37
2019-04-23T15:40:15.212Z,7.27
2019-04-23T15:42:51.790Z,7.10
2019-04-23T15:45:15.119Z,11.70
2019-04-23T15:47:52.654Z,7.53
2019-04-23T15:50:22.752Z,9.10
2019-04-23T15:52:51.491Z,7.07
2019-04-23T15:55:33.975Z,8.27
2019-04-23T16:00:22.385Z,8.10
2019-04-23T16:02:24.371Z,6.87
2019-04-23T16:04:53.714Z,6.97
2019-04-23T16:07:44.121Z,7.53
2019-04-23T16:10:26.237Z,6.80
2019-04-23T16:12:56.783Z,8.13
2019-04-23T16:15:19.692Z,13.23
2019-04-23T16:18:10.805Z,8.90
2019-04-23T16:23:05.757Z,7.00
2019-04-23T16:25:31.704Z,8.40
2019-04-23T16:28:04.243Z,7.00
2019-04-23T16:30:31.041Z,8.03
2019-04-23T16:38:38.293Z,8.63
2019-04-23T16:40:54.713Z,7.73
2019-04-23T16:43:18.436Z,7.30
2019-04-23T16:48:55.468Z,7.70
2019-04-23T16:51:11.579Z,8.27
2019-04-23T16:53:25.165Z,8.87
2019-04-23T16:56:15.362Z,7.83
2019-04-23T17:03:31.894Z,7.77
2019-04-23T17:06:12.282Z,7.83
2019-04-23T17:08:51.943Z,7.83
2019-04-23T17:11:13.030Z,6.47
2019-04-23T17:13:59.065Z,7.30
2019-04-23T17:18:41.092Z,6.47
2019-04-23T17:23:49.703Z,6.60
2019-04-23T17:28:47.457Z,7.90
2019-04-23T17:33:54.114Z,7.77
2019-04-23T17:39:02.793Z,7.80
2019-04-23T17:42:01.628Z,7.30
2019-04-23T17:44:23.622Z,7.43
2019-04-23T17:46:57.969Z,7.13
2019-04-23T17:49:22.220Z,7.33
2019-04-23T17:51:55.841Z,6.97
2019-04-23T17:54:32.204Z,7.20
2019-04-23T17:57:08.992Z,7.40
2019-04-23T18:00:01.009Z,7.33
2019-04-23T18:04:56.831Z,7.67
2019-04-23T18:07:31.925Z,7.70
2019-04-23T18:10:08.636Z,6.93
2019-04-23T18:14:50.839Z,7.77
2019-04-23T18:17:35.520Z,7.40
2019-04-23T18:20:06.627Z,7.53
2019-04-23T18:22:37.334Z,7.77
2019-04-23T18:25:32.278Z,8.80
2019-04-23T18:27:50.686Z,8.57
2019-04-23T18:30:35.374Z,8.13
2019-04-23T18:33:43.718Z,8.33
2019-04-23T18:35:47.719Z,8.70
2019-04-23T18:38:13.885Z,7.80
2019-04-23T18:40:54.606Z,7.70
2019-04-23T18:43:20.656Z,8.13
2019-04-23T18:45:53.992Z,8.00
2019-04-23T18:51:03.819Z,8.30
2019-04-23T18:58:49.975Z,8.43
2019-04-23T19:01:11.036Z,9.90
2019-04-23T19:04:00.481Z,9.03
2019-04-23T19:06:25.801Z,8.90
2019-04-23T19:11:51.467Z,8.90
2019-04-23T19:14:19.989Z,8.80
2019-04-23T19:16:55.267Z,8.67
2019-04-23T19:19:20.360Z,9.30
2019-04-23T19:24:21.917Z,9.23
2019-04-23T19:32:00.733Z,10.03
2019-04-23T19:37:06.069Z,9.57
2019-04-23T19:42:03.769Z,9.93
2019-04-23T19:44:40.697Z,9.63
2019-04-23T19:47:09.545Z,9.70
2019-04-23T19:49:41.827Z,10.67
2019-04-23T19:52:03.480Z,11.00
2019-04-23T19:54:54.173Z,10.67
2019-04-23T19:57:13.050Z,10.80
2019-04-23T20:02:22.884Z,10.87
2019-04-23T20:04:46.073Z,10.90
2019-04-23T20:07:43.226Z,10.63
2019-04-23T20:12:25.911Z,9.10
2019-04-23T20:14:51.784Z,11.47
2019-04-23T20:22:34.028Z,11.20
2019-04-23T20:25:10.111Z,10.90
2019-04-23T20:27:26.691Z,10.60
2019-04-23T20:35:24.135Z,11.33
2019-04-23T20:40:15.085Z,11.73
2019-04-23T20:42:46.761Z,11.20
2019-04-23T20:45:39.054Z,12.10
2019-04-23T20:47:51.308Z,11.70
2019-04-23T20:50:18.130Z,11.13
2019-04-23T20:52:46.853Z,11.40
2019-04-23T20:55:26.075Z,11.07
2019-04-23T20:58:07.237Z,11.90
2019-04-23T21:00:57.124Z,12.00
2019-04-23T21:03:30.374Z,10.97
2019-04-23T21:05:41.879Z,10.90
2019-04-23T21:08:30.362Z,10.87
2019-04-23T21:10:58.344Z,10.67
2019-04-23T21:15:54.603Z,11.00
2019-04-23T21:18:32.231Z,11.90
2019-04-23T21:20:56.263Z,10.90
2019-04-23T21:23:45.726Z,11.97
2019-04-23T21:25:52.547Z,11.93
2019-04-23T21:28:48.676Z,11.97
2019-04-23T21:33:49.884Z,10.03
2019-04-23T21:39:15.369Z,12.07
2019-04-23T21:42:01.636Z,11.90
2019-04-23T21:44:35.498Z,11.40
2019-04-23T21:46:58.808Z,11.30
2019-04-23T21:54:20.793Z,12.70
2019-04-23T21:57:12.167Z,12.30
2019-04-23T21:59:29.540Z,12.33
2019-04-23T22:02:03.623Z,13.00
2019-04-23T22:04:34.203Z,13.00
2019-04-23T22:07:04.673Z,13.23
2019-04-23T22:12:08.950Z,14.50
2019-04-23T22:14:40.563Z,13.23
2019-04-23T22:17:10.327Z,13.53
2019-04-23T22:19:45.578Z,13.17
2019-04-23T22:22:10.848Z,12.90
2019-04-23T22:27:09.753Z,14.00
2019-04-23T22:29:43.497Z,12.97
2019-04-23T22:32:12.924Z,14.17
2019-04-23T22:34:57.185Z,13.50
2019-04-23T22:37:23.530Z,13.70
2019-04-23T22:39:54.180Z,14.57
2019-04-23T22:45:05.547Z,12.67
2019-04-23T22:47:24.851Z,13.40
2019-04-23T22:50:00.560Z,13.97
2019-04-23T22:52:33.741Z,13.40
2019-04-23T22:55:02.252Z,14.20
2019-04-23T22:57:50.312Z,14.93
2019-04-23T23:02:55.621Z,14.67
2019-04-23T23:10:24.567Z,13.67
2019-04-23T23:13:02.314Z,14.07
2019-04-23T23:15:24.514Z,14.43
2019-04-23T23:17:59.966Z,15.00
2019-04-23T23:23:06.160Z,14.97
2019-04-23T23:25:24.661Z,14.67
2019-04-23T23:28:05.888Z,15.10
2019-04-23T23:30:33.765Z,14.53
2019-04-23T23:33:02.568Z,15.10
2019-04-23T23:35:44.555Z,15.37
2019-04-23T23:38:09.795Z,14.80
2019-04-23T23:40:36.613Z,15.43
2019-04-23T23:43:14.590Z,15.13
2019-04-23T23:48:08.395Z,13.80
2019-04-23T23:50:44.927Z,14.03
2019-04-23T23:53:18.459Z,15.10
2019-04-23T23:55:48.714Z,14.47
2019-04-23T23:58:25.419Z,13.40
